Time;durP1;ratioP1;P1;durP2;ratioP2;P2;SDS_P1;SDS_P2;PMS_P1;PMS_P2;Temp;Humidity;BMP_temperature;BMP_pressure;BME280_temperature;BME280_humidity;BME280_pressure;Samples;Min_cycle;Max_cycle;Signal;HPM_P1;HPM_P2
2022/09/10 00:00:22;;;;;;;;;;;;;;;13.49;88.33;96767.84;30001;983;1881;-63
2022/09/10 00:00:53;;;;;;;;;;;;;;;13.49;88.29;96761.59;30001;983;1885;-64
2022/09/10 00:01:27;;;;;;;;;;;;;;;13.48;89.31;96760.78;30001;983;1881;-74
2022/09/10 00:01:59;;;;;;;;;;;;;;;13.47;88.92;96763.81;30001;983;1872;-74
2022/09/10 00:02:31;;;;;;;;;;;;;;;13.47;88.72;96763.81;30001;983;1859;-64
2022/09/10 00:03:03;;;;;;;;;;;;;;;13.47;88.75;96761.09;30001;983;1885;-74
2022/09/10 00:03:34;;;;;;;;;;;;;;;13.46;88.66;96762.22;30001;986;1881;-64
2022/09/10 00:04:13;;;;;;;;;;;;;;;13.46;89.00;96759.47;30001;983;1886;-64
2022/09/10 00:04:47;;;;;;;;;;;;;;;13.45;88.47;96749.69;30001;982;1846;-65
2022/09/10 00:05:18;;;;;;;;;;;;;;;13.47;88.52;96747.47;30001;982;1806;-77
2022/09/10 00:05:49;;;;;;;;;;;;;;;13.48;88.70;96758.06;30001;982;1881;-63
2022/09/10 00:06:20;;;;;;;;;;;;;;;13.47;88.81;96752.91;30001;982;1873;-64
2022/09/10 00:06:51;;;;;;;;;;;;;;;13.45;88.83;96752.41;30001;982;1873;-76
2022/09/10 00:07:22;;;;;;;;;;;;;;;13.44;88.72;96753.53;30001;982;1873;-65
2022/09/10 00:07:57;;;;;;;;;;;;;;;13.43;88.36;96755.47;30001;983;1872;-75
2022/09/10 00:08:29;;;;;;;;;;;;;;;13.46;88.99;96754.03;30001;983;1885;-75
2022/09/10 00:09:00;;;;;;;;;;;;;;;13.46;89.59;96754.03;30001;983;1881;-75
2022/09/10 00:09:36;;;;;;;;;;;;;;;13.46;89.23;96756.75;30001;983;1886;-65
2022/09/10 00:10:07;;;;;;;;;;;;;;;13.46;89.14;96751.31;30001;983;1881;-76
2022/09/10 00:10:42;;;;;;;;;;;;;;;13.46;88.99;96754.84;30001;983;1886;-75
2022/09/10 00:11:16;;;;;;;;;;;;;;;13.47;88.82;96752.91;30001;983;1868;-65
2022/09/10 00:11:46;;;;;;;;;;;;;;;13.48;88.80;96749.06;30001;983;1877;-77
2022/09/10 00:12:18;;;;;;;;;;;;;;;13.48;88.78;96754.53;30002;982;1881;-65
2022/09/10 00:12:50;;;;;;;;;;;;;;;13.49;88.32;96745.22;30002;982;1873;-63
2022/09/10 00:13:21;;;;;;;;;;;;;;;13.49;88.19;96750.69;30002;982;1873;-64
2022/09/10 00:13:52;;;;;;;;;;;;;;;13.47;88.01;96748.25;30002;982;1886;-77
2022/09/10 00:14:26;;;;;;;;;;;;;;;13.46;87.90;96749.38;30002;986;1872;-75
2022/09/10 00:14:58;;;;;;;;;;;;;;;13.48;nan;96749.06;30002;982;1886;-78
2022/09/10 00:15:31;;;;;;;;;;;;;;;13.49;87.42;96745.22;30002;983;1881;-76
2022/09/10 00:16:03;;;;;;;;;;;;;;;13.48;87.56;96744.41;30002;983;1885;-65
2022/09/10 00:16:34;;;;;;;;;;;;;;;13.50;87.52;96753.09;30002;983;1868;-77
2022/09/10 00:17:08;;;;;;;;;;;;;;;13.49;88.12;96745.22;30002;983;1877;-64
2022/09/10 00:17:40;;;;;;;;;;;;;;;13.48;87.93;96743.62;30002;983;1824;-79
2022/09/10 00:18:12;;;;;;;;;;;;;;;13.46;88.31;96748.56;30002;983;1877;-79
2022/09/10 00:18:47;;;;;;;;;;;;;;;13.45;88.42;96749.69;30002;983;1881;-79
2022/09/10 00:19:18;;;;;;;;;;;;;;;13.45;88.59;96749.69;30002;983;1886;-78
2022/09/10 00:19:49;;;;;;;;;;;;;;;13.44;88.52;96748.88;30002;982;1881;-79
2022/09/10 00:20:20;;;;;;;;;;;;;;;13.44;88.26;96748.09;30002;982;1886;-78
2022/09/10 00:20:54;;;;;;;;;;;;;;;13.43;87.92;96751.94;30002;982;1868;-64
2022/09/10 00:21:25;;;;;;;;;;;;;;;13.41;87.22;96744.88;30002;982;1864;-64
2022/09/10 00:21:56;;;;;;;;;;;;;;;13.41;87.29;96744.88;30002;982;1882;-78
2022/09/10 00:22:27;;;;;;;;;;;;;;;13.40;87.76;96746.00;30002;982;1886;-64
2022/09/10 00:22:58;;;;;;;;;;;;;;;13.39;88.25;96741.66;30002;983;1881;-64
2022/09/10 00:23:30;;;;;;;;;;;;;;;13.38;89.06;96750.16;30002;983;1885;-76
2022/09/10 00:24:04;;;;;;;;;;;;;;;13.37;88.69;96738.44;30002;983;1881;-63
2022/09/10 00:24:34;;;;;;;;;;;;;;;13.36;88.40;96747.72;30002;983;1885;-77
2022/09/10 00:25:06;;;;;;;;;;;;;;;13.37;87.64;96749.34;30002;983;1868;-64
2022/09/10 00:25:39;;;;;;;;;;;;;;;13.37;87.50;96741.16;30002;983;1877;-78
2022/09/10 00:26:33;;;;;;;;;;;;;;;13.38;87.35;96739.25;30002;983;1881;-64
2022/09/10 00:27:04;;;;;;;;;;;;;;;13.38;87.17;96736.50;30002;982;1868;-76
2022/09/10 00:27:35;;;;;;;;;;;;;;;13.38;87.45;96740.03;30002;982;1873;-65
2022/09/10 00:28:09;;;;;;;;;;;;;;;13.36;87.22;96742.28;30002;982;1886;-76
2022/09/10 00:28:41;;;;;;;;;;;;;;;13.39;86.44;96738.94;30002;982;1882;-76
2022/09/10 00:29:14;;;;;;;;;;;;;;;13.39;86.65;96736.19;30002;982;1886;-63
2022/09/10 00:29:45;;;;;;;;;;;;;;;13.38;86.54;96740.03;30002;983;1854;-75
2022/09/10 00:30:19;;;;;;;;;;;;;;;13.38;86.54;96740.03;30002;983;1885;-75
2022/09/10 00:30:50;;;;;;;;;;;;;;;13.37;86.54;96737.63;30002;983;1881;-78
2022/09/10 00:31:25;;;;;;;;;;;;;;;13.35;86.37;96740.66;30002;983;1885;-77
2022/09/10 00:31:56;;;;;;;;;;;;;;;13.34;86.92;96741.78;30002;983;1868;-73
2022/09/10 00:32:28;;;;;;;;;;;;;;;13.29;85.86;96741.91;30002;983;1864;-75
2022/09/10 00:33:02;;;;;;;;;;;;;;;13.27;85.71;96743.34;30002;983;1881;-76
2022/09/10 00:33:33;;;;;;;;;;;;;;;13.29;85.92;96741.91;30002;983;1886;-64
2022/09/10 00:34:04;;;;;;;;;;;;;;;13.31;85.92;96745.13;30002;983;1881;-75
2022/09/10 00:34:35;;;;;;;;;;;;;;;13.30;85.77;96748.97;30002;982;1886;-63
2022/09/10 00:35:08;;;;;;;;;;;;;;;13.30;86.05;96743.53;30002;982;1881;-76
2022/09/10 00:35:39;;;;;;;;;;;;;;;13.30;86.22;96743.53;30002;982;1886;-76
2022/09/10 00:36:18;;;;;;;;;;;;;;;13.31;85.44;96745.13;30002;982;1882;-63
2022/09/10 00:36:49;;;;;;;;;;;;;;;13.33;84.50;96742.91;30002;982;1886;-73
2022/09/10 00:37:20;;;;;;;;;;;;;;;13.33;84.27;96747.56;30002;983;1868;-62
2022/09/10 00:37:51;;;;;;;;;;;;;;;13.32;84.41;96740.50;30002;983;1876;-73
2022/09/10 00:38:22;;;;;;;;;;;;;;;13.33;84.52;96745.63;30002;983;1881;-64
2022/09/10 00:38:54;;;;;;;;;;;;;;;13.37;84.33;96748.53;30002;983;1885;-63
2022/09/10 00:39:25;;;;;;;;;;;;;;;13.43;83.45;96743.75;30002;983;1881;-64
2022/09/10 00:39:56;;;;;;;;;;;;;;;13.44;83.39;96739.91;30002;983;1885;-74
2022/09/10 00:40:27;;;;;;;;;;;;;;;13.43;83.44;96751.94;30002;983;1881;-73
2022/09/10 00:41:06;;;;;;;;;;;;;;;13.41;84.39;96747.59;30002;983;1886;-75
2022/09/10 00:41:38;;;;;;;;;;;;;;;13.39;84.61;96751.75;30002;983;1868;-63
2022/09/10 00:42:10;;;;;;;;;;;;;;;13.38;84.63;96740.03;30002;982;1877;-74
2022/09/10 00:42:47;;;;;;;;;;;;;;;13.39;84.36;96747.09;30002;982;1881;-64
2022/09/10 00:43:23;;;;;;;;;;;;;;;13.40;84.50;96742.47;30002;982;1886;-71
2022/09/10 00:44:05;;;;;;;;;;;;;;;13.40;83.79;96737.81;30002;959;1905;-76
2022/09/10 00:44:56;;;;;;;;;;;;;;;13.42;83.24;96740.22;30002;983;1885;-62
2022/09/10 00:45:28;;;;;;;;;;;;;;;13.43;83.38;96741.03;30002;983;1877;-63
2022/09/10 00:45:59;;;;;;;;;;;;;;;13.43;83.50;96738.31;30002;983;1885;-63
2022/09/10 00:46:33;;;;;;;;;;;;;;;13.41;83.32;96747.59;30002;983;1881;-64
2022/09/10 00:47:22;;;;;;;;;;;;;;;13.39;83.25;96741.66;30002;983;1872;-64
2022/09/10 00:47:56;;;;;;;;;;;;;;;13.40;83.33;96740.53;30002;967;1884;-74
2022/09/10 00:48:29;;;;;;;;;;;;;;;13.42;82.78;96745.69;30002;983;1886;-63
2022/09/10 00:49:02;;;;;;;;;;;;;;;13.40;83.25;96737.81;30002;983;1881;-74
2022/09/10 00:49:36;;;;;;;;;;;;;;;13.38;83.71;96737.31;30002;983;1886;-64
2022/09/10 00:50:30;;;;;;;;;;;;;;;13.34;84.00;96739.06;30002;982;1882;-74
2022/09/10 00:51:05;;;;;;;;;;;;;;;13.33;84.54;96737.47;30002;982;1886;-63
2022/09/10 00:51:39;;;;;;;;;;;;;;;13.32;85.85;96738.56;30002;982;1882;-71
2022/09/10 00:52:11;;;;;;;;;;;;;;;13.32;86.19;96746.75;30002;983;1872;-63
2022/09/10 00:52:46;;;;;;;;;;;;;;;13.29;86.57;96731.03;30002;963;1892;-63
2022/09/10 00:53:20;;;;;;;;;;;;;;;13.32;85.16;96735.03;30002;983;1835;-64
2022/09/10 00:53:52;;;;;;;;;;;;;;;13.32;83.87;96735.84;30002;983;1881;-62
2022/09/10 00:54:24;;;;;;;;;;;;;;;13.37;82.98;96737.63;30002;983;1886;-71
2022/09/10 00:54:55;;;;;;;;;;;;;;;13.37;82.16;96727.53;30002;983;1881;-62
2022/09/10 00:55:27;;;;;;;;;;;;;;;13.37;82.07;96727.53;30002;983;1886;-63
2022/09/10 00:55:59;;;;;;;;;;;;;;;13.44;81.81;96737.19;30002;983;1881;-63
2022/09/10 00:56:32;;;;;;;;;;;;;;;13.45;81.61;96738.78;30002;983;1886;-63
2022/09/10 00:57:07;;;;;;;;;;;;;;;13.43;81.89;96735.56;30002;983;1881;-72
2022/09/10 00:57:38;;;;;;;;;;;;;;;13.47;81.61;96742.00;30002;982;1873;-63
2022/09/10 00:58:11;;;;;;;;;;;;;;;13.59;81.99;96728.56;30002;982;1873;-62
2022/09/10 00:58:43;;;;;;;;;;;;;;;13.64;81.83;96731.16;30002;982;1886;-72
2022/09/10 00:59:17;;;;;;;;;;;;;;;13.68;81.71;96732.13;30002;982;1882;-64
2022/09/10 00:59:51;;;;;;;;;;;;;;;13.68;80.58;96726.69;30002;983;1885;-62
2022/09/10 01:00:22;;;;;;;;;;;;;;;13.65;80.20;96724.56;30002;983;1881;-63
2022/09/10 01:00:57;;;;;;;;;;;;;;;13.63;80.48;96726.81;30002;983;1885;-64
2022/09/10 01:01:33;;;;;;;;;;;;;;;13.58;81.93;96732.41;30002;983;1881;-70
2022/09/10 01:02:04;;;;;;;;;;;;;;;13.57;81.81;96730.81;30002;983;1885;-64
2022/09/10 01:02:35;;;;;;;;;;;;;;;13.61;81.71;96726.31;30002;983;1881;-63
2022/09/10 01:03:10;;;;;;;;;;;;;;;13.64;81.74;96722.97;30001;983;1872;-63
2022/09/10 01:03:42;;;;;;;;;;;;;;;13.67;81.91;96725.06;30002;983;1872;-64
2022/09/10 01:04:14;;;;;;;;;;;;;;;13.64;82.00;96726.50;30001;982;1886;-65
2022/09/10 01:04:45;;;;;;;;;;;;;;;13.70;81.89;96729.88;30001;982;1882;-68
2022/09/10 01:05:16;;;;;;;;;;;;;;;13.70;81.88;96724.44;30001;982;1886;-62
2022/09/10 01:05:48;;;;;;;;;;;;;;;13.73;82.30;96729.25;30001;982;1882;-72
2022/09/10 01:06:19;;;;;;;;;;;;;;;13.77;81.78;96722.06;30003;818;1015;-62
2022/09/10 01:06:50;;;;;;;;;;;;;;;13.81;80.99;96725.75;30001;982;1882;-61
2022/09/10 01:07:23;;;;;;;;;;;;;;;13.81;80.72;96720.31;30001;983;1885;-69
2022/09/10 01:07:56;;;;;;;;;;;;;;;13.77;81.22;96723.97;30001;983;1881;-66
2022/09/10 01:08:27;;;;;;;;;;;;;;;13.70;81.76;96724.44;30001;983;1872;-68
2022/09/10 01:09:00;;;;;;;;;;;;;;;13.70;81.78;96727.16;30001;983;1872;-62
2022/09/10 01:09:31;;;;;;;;;;;;;;;13.65;81.72;96728.09;30001;983;1885;-65
2022/09/10 01:10:05;;;;;;;;;;;;;;;13.62;81.67;96733.38;30001;983;1881;-73
2022/09/10 01:10:44;;;;;;;;;;;;;;;13.58;81.90;96738.66;30001;965;1911;-64
2022/09/10 01:11:50;;;;;;;;;;;;;;;13.57;81.89;96731.59;30001;983;1881;-73
2022/09/10 01:12:47;;;;;;;;;;;;;;;13.62;82.74;96739.66;30001;982;1881;-70
2022/09/10 01:13:36;;;;;;;;;;;;;;;13.57;82.32;96730.81;30001;982;1877;-62
2022/09/10 01:14:25;;;;;;;;;;;;;;;13.55;82.53;96733.03;30001;982;1864;-63
2022/09/10 01:15:09;;;;;;;;;;;;;;;13.47;83.13;96726.47;30001;983;1868;-75
2022/09/10 01:15:48;;;;;;;;;;;;;;;13.44;83.38;96734.47;30001;983;1885;-65
2022/09/10 01:16:45;;;;;;;;;;;;;;;13.39;84.84;96730.75;30001;983;1868;-76
2022/09/10 01:17:43;;;;;;;;;;;;;;;13.32;85.55;96738.56;30001;983;1872;-76
2022/09/10 01:18:30;;;;;;;;;;;;;;;13.25;85.94;96735.50;30001;983;1877;-63
2022/09/10 01:19:19;;;;;;;;;;;;;;;13.25;85.93;96727.31;30001;982;1886;-75
2022/09/10 01:20:18;;;;;;;;;;;;;;;13.26;85.95;96726.19;30001;982;1873;-65
2022/09/10 01:21:27;;;;;;;;;;;;;;;13.30;85.07;96731.81;30001;982;1877;-65
2022/09/10 01:22:18;;;;;;;;;;;;;;;13.34;84.40;96727.34;30001;982;1869;-75
2022/09/10 01:23:10;;;;;;;;;;;;;;;13.32;84.97;96733.13;30001;983;1872;-74
2022/09/10 01:23:59;;;;;;;;;;;;;;;13.28;86.26;96734.88;30001;983;1868;-64
2022/09/10 01:24:41;;;;;;;;;;;;;;;13.23;86.36;96735.00;30001;983;1863;-64
2022/09/10 01:25:30;;;;;;;;;;;;;;;13.20;86.59;96732.91;30001;986;1877;-74
2022/09/10 01:26:27;;;;;;;;;;;;;;;13.20;87.42;96734.81;30001;983;1877;-65
2022/09/10 01:27:21;;;;;;;;;;;;;;;13.16;87.49;96734.66;30001;982;1877;-74
2022/09/10 01:27:54;;;;;;;;;;;;;;;13.13;88.12;96740.69;30001;982;1881;-65
2022/09/10 01:28:41;;;;;;;;;;;;;;;13.13;88.47;96732.53;30001;982;1868;-74
2022/09/10 01:29:46;;;;;;;;;;;;;;;13.12;88.42;96736.38;30001;986;1868;-65
2022/09/10 01:30:22;;;;;;;;;;;;;;;13.13;88.13;96737.19;30001;983;1881;-75
2022/09/10 01:31:02;;;;;;;;;;;;;;;13.14;88.35;96734.13;30001;983;1881;-74
2022/09/10 01:31:44;;;;;;;;;;;;;;;13.16;88.84;96737.38;30001;983;1885;-75
2022/09/10 01:32:26;;;;;;;;;;;;;;;13.16;88.76;96740.13;30001;983;1881;-65
2022/09/10 01:33:11;;;;;;;;;;;;;;;13.18;89.16;96737.03;30001;983;1886;-75
2022/09/10 01:33:48;;;;;;;;;;;;;;;13.18;89.24;96734.31;30001;983;1868;-64
2022/09/10 01:34:33;;;;;;;;;;;;;;;13.17;89.27;96738.97;30001;982;1864;-64
2022/09/10 01:35:13;;;;;;;;;;;;;;;13.18;89.56;96731.59;30001;982;1882;-65
2022/09/10 01:35:50;;;;;;;;;;;;;;;13.17;89.46;96736.25;30001;984;1886;-65
2022/09/10 01:36:24;;;;;;;;;;;;;;;13.19;89.48;96735.94;30001;982;1882;-65
2022/09/10 01:36:59;;;;;;;;;;;;;;;13.20;89.20;96738.34;30001;983;1885;-65
2022/09/10 01:37:32;;;;;;;;;;;;;;;13.20;89.83;96738.34;30001;983;1881;-74
2022/09/10 01:38:05;;;;;;;;;;;;;;;13.20;89.60;96732.91;30001;983;1885;-65
2022/09/10 01:38:37;;;;;;;;;;;;;;;13.20;89.71;96743.78;30001;983;1881;-74
2022/09/10 01:39:08;;;;;;;;;;;;;;;13.19;89.66;96742.19;30001;983;1872;-64
2022/09/10 01:39:40;;;;;;;;;;;;;;;13.18;89.90;96740.56;30001;983;1872;-65
2022/09/10 01:40:11;;;;;;;;;;;;;;;13.19;89.89;96730.47;30001;983;1886;-65
2022/09/10 01:40:43;;;;;;;;;;;;;;;13.16;89.61;96731.94;30001;983;1881;-72
2022/09/10 01:41:14;;;;;;;;;;;;;;;13.14;89.88;96739.59;30001;983;1873;-66
2022/09/10 01:41:47;;;;;;;;;;;;;;;13.14;89.84;96733.34;30001;982;1873;-65
2022/09/10 01:42:23;;;;;;;;;;;;;;;13.14;89.71;96733.34;30001;982;1886;-72
2022/09/10 01:43:01;;;;;;;;;;;;;;;13.14;89.46;96739.59;30001;982;1882;-74
2022/09/10 01:43:32;;;;;;;;;;;;;;;13.15;89.52;96730.31;30001;982;1873;-65
2022/09/10 01:44:08;;;;;;;;;;;;;;;13.14;89.53;96736.88;30001;982;1873;-65
2022/09/10 01:44:49;;;;;;;;;;;;;;;13.16;89.51;96742.03;30001;983;1885;-65
2022/09/10 01:45:21;;;;;;;;;;;;;;;13.16;89.66;96739.31;30001;983;1881;-65
2022/09/10 01:46:14;;;;;;;;;;;;;;;13.16;89.78;96733.84;30001;983;1885;-73
2022/09/10 01:46:51;;;;;;;;;;;;;;;13.14;89.80;96736.88;30001;983;1877;-74
2022/09/10 01:47:34;;;;;;;;;;;;;;;13.14;89.78;96739.59;30001;983;1885;-74
2022/09/10 01:48:14;;;;;;;;;;;;;;;13.15;89.77;96741.19;30001;983;1881;-72
2022/09/10 01:49:14;;;;;;;;;;;;;;;13.14;88.91;96739.59;30001;983;1873;-74
2022/09/10 01:50:01;;;;;;;;;;;;;;;13.14;88.79;96739.59;30001;982;1868;-73
2022/09/10 01:50:42;;;;;;;;;;;;;;;13.16;88.28;96742.84;30001;982;1886;-74
2022/09/10 01:51:51;;;;;;;;;;;;;;;13.18;88.11;96742.50;30001;982;1868;-71
2022/09/10 01:52:34;;;;;;;;;;;;;;;13.21;88.15;96736.41;30001;983;1872;-71
2022/09/10 01:53:23;;;;;;;;;;;;;;;13.20;88.40;96738.34;30001;983;1881;-73
2022/09/10 01:54:12;;;;;;;;;;;;;;;13.21;87.89;96739.16;30001;983;1877;-73
2022/09/10 01:55:02;;;;;;;;;;;;;;;13.23;88.53;96742.38;30001;983;1877;-73
2022/09/10 01:55:45;;;;;;;;;;;;;;;13.21;89.36;96734.50;30001;983;1873;-73
2022/09/10 01:56:35;;;;;;;;;;;;;;;13.22;88.88;96738.84;30001;985;1864;-74
2022/09/10 01:57:14;;;;;;;;;;;;;;;13.21;88.62;96739.94;30001;982;1886;-72
2022/09/10 01:57:59;;;;;;;;;;;;;;;13.22;88.98;96730.66;30001;982;1882;-73
2022/09/10 01:58:33;;;;;;;;;;;;;;;13.21;88.79;96739.94;30001;982;1886;-74
2022/09/10 01:59:26;;;;;;;;;;;;;;;13.21;89.03;96734.50;30001;982;1882;-74
2022/09/10 02:00:05;;;;;;;;;;;;;;;13.20;88.98;96738.34;30001;983;1868;-73
2022/09/10 02:00:40;;;;;;;;;;;;;;;13.22;88.77;96732.59;30001;983;1859;-73
2022/09/10 02:01:29;;;;;;;;;;;;;;;13.21;88.99;96729.06;30001;983;1885;-71
2022/09/10 02:02:03;;;;;;;;;;;;;;;13.21;88.86;96730.97;30001;983;1872;-74
2022/09/10 02:02:58;;;;;;;;;;;;;;;13.21;89.33;96731.78;30001;983;1886;-74
2022/09/10 02:03:30;;;;;;;;;;;;;;;13.21;89.38;96729.06;30001;983;1881;-64
2022/09/10 02:04:04;;;;;;;;;;;;;;;13.20;89.72;96732.91;30001;983;1886;-64
2022/09/10 02:04:36;;;;;;;;;;;;;;;13.19;89.50;96731.28;30001;982;1881;-73
2022/09/10 02:05:08;;;;;;;;;;;;;;;13.20;89.58;96727.44;30001;985;1859;-74
2022/09/10 02:05:43;;;;;;;;;;;;;;;13.19;89.93;96730.47;30001;982;1873;-71
2022/09/10 02:06:15;;;;;;;;;;;;;;;13.19;89.82;96731.28;30001;982;1877;-74
2022/09/10 02:06:48;;;;;;;;;;;;;;;13.19;89.84;96731.28;30001;983;1881;-73
2022/09/10 02:07:21;;;;;;;;;;;;;;;13.17;89.71;96722.63;30001;983;1876;-72
2022/09/10 02:07:54;;;;;;;;;;;;;;;13.16;89.88;96731.94;30001;983;1881;-64
2022/09/10 02:08:29;;;;;;;;;;;;;;;13.16;89.57;96729.22;30001;983;1877;-71
2022/09/10 02:09:01;;;;;;;;;;;;;;;13.17;89.27;96727.28;30001;983;1868;-65
2022/09/10 02:09:33;;;;;;;;;;;;;;;13.18;88.80;96723.44;30001;983;1868;-73
2022/09/10 02:10:06;;;;;;;;;;;;;;;13.20;88.75;96726.63;30001;983;1881;-73
2022/09/10 02:10:58;;;;;;;;;;;;;;;13.20;88.72;96727.44;30001;983;1877;-72
2022/09/10 02:11:29;;;;;;;;;;;;;;;13.34;87.92;96728.16;30001;967;1896;-69
2022/09/10 02:12:01;;;;;;;;;;;;;;;13.38;87.02;96728.34;30001;982;1877;-68
2022/09/10 02:12:32;;;;;;;;;;;;;;;13.39;87.50;96728.03;30001;982;1881;-73
2022/09/10 02:13:03;;;;;;;;;;;;;;;13.37;87.81;96727.53;30001;982;1877;-74
2022/09/10 02:13:35;;;;;;;;;;;;;;;13.35;87.34;96732.50;30001;968;1887;-65
2022/09/10 02:14:06;;;;;;;;;;;;;;;13.34;88.14;96730.87;30001;982;1869;-79
2022/09/10 02:14:37;;;;;;;;;;;;;;;13.33;88.46;96737.47;30001;983;1881;-80
2022/09/10 02:15:10;;;;;;;;;;;;;;;13.31;88.48;96728.78;30001;983;1876;-79
2022/09/10 02:15:41;;;;;;;;;;;;;;;13.33;88.67;96728.47;30001;987;1881;-78
2022/09/10 02:16:14;;;;;;;;;;;;;;;13.35;88.41;96723.53;30001;983;1877;-79
2022/09/10 02:16:49;;;;;;;;;;;;;;;13.35;88.90;96727.03;30001;983;1868;-78
2022/09/10 02:17:22;;;;;;;;;;;;;;;13.32;89.44;96724.94;30001;983;1868;-80
2022/09/10 02:17:53;;;;;;;;;;;;;;;13.31;89.28;96723.34;30001;983;1881;-79
2022/09/10 02:18:25;;;;;;;;;;;;;;;13.31;89.76;96727.97;30001;983;1877;-78
2022/09/10 02:18:57;;;;;;;;;;;;;;;13.29;89.92;96724.78;30001;982;1881;-77
2022/09/10 02:19:28;;;;;;;;;;;;;;;13.27;89.64;96735.97;30001;982;1877;-80
2022/09/10 02:20:02;;;;;;;;;;;;;;;13.29;89.77;96725.56;30001;982;1881;-77
2022/09/10 02:20:35;;;;;;;;;;;;;;;13.30;90.04;96729.91;30001;982;1877;-73
2022/09/10 02:21:07;;;;;;;;;;;;;;;13.28;89.55;96726.69;30001;982;1869;-71
2022/09/10 02:21:39;;;;;;;;;;;;;;;13.27;89.77;96727.81;30001;982;1869;-70
2022/09/10 02:22:10;;;;;;;;;;;;;;;13.29;89.40;96728.28;30001;983;1881;-69
2022/09/10 02:22:47;;;;;;;;;;;;;;;13.31;89.48;96728.78;30001;983;1876;-71
2022/09/10 02:23:23;;;;;;;;;;;;;;;13.31;89.17;96728.78;30001;983;1881;-71
2022/09/10 02:23:56;;;;;;;;;;;;;;;13.32;88.96;96735.84;30001;983;1877;-69
2022/09/10 02:24:28;;;;;;;;;;;;;;;13.31;89.00;96731.50;30001;983;1881;-71
2022/09/10 02:24:59;;;;;;;;;;;;;;;13.32;89.10;96738.56;30001;983;1877;-69
2022/09/10 02:25:32;;;;;;;;;;;;;;;13.32;89.06;96730.41;30001;983;1881;-68
2022/09/10 02:26:03;;;;;;;;;;;;;;;13.31;89.22;96728.78;30001;982;1864;-68
2022/09/10 02:26:36;;;;;;;;;;;;;;;13.31;90.34;96730.72;30001;982;1859;-67
2022/09/10 02:27:07;;;;;;;;;;;;;;;13.29;90.07;96728.28;30001;982;1877;-67
2022/09/10 02:27:38;;;;;;;;;;;;;;;13.27;90.10;96727.81;30001;982;1868;-65
2022/09/10 02:28:09;;;;;;;;;;;;;;;13.28;89.85;96734.06;30001;982;1868;-67
2022/09/10 02:28:42;;;;;;;;;;;;;;;13.28;89.91;96725.88;30001;982;1882;-68
2022/09/10 02:29:18;;;;;;;;;;;;;;;13.26;89.99;96726.19;30001;982;1877;-68
2022/09/10 02:29:49;;;;;;;;;;;;;;;13.24;90.54;96728.44;30001;983;1881;-67
2022/09/10 02:30:20;;;;;;;;;;;;;;;13.22;90.60;96725.22;30001;983;1876;-67
2022/09/10 02:30:51;;;;;;;;;;;;;;;13.23;90.67;96724.09;30001;983;1881;-65
2022/09/10 02:31:24;;;;;;;;;;;;;;;13.25;90.46;96735.50;30001;983;1864;-66
2022/09/10 02:31:57;;;;;;;;;;;;;;;13.27;89.96;96727.81;30001;983;1873;-64
2022/09/10 02:32:29;;;;;;;;;;;;;;;13.26;89.99;96728.91;30001;978;1882;-68
2022/09/10 02:33:03;;;;;;;;;;;;;;;13.25;89.98;96730.03;30001;983;1881;-66
2022/09/10 02:33:34;;;;;;;;;;;;;;;13.27;90.10;96722.34;30001;983;1877;-68
2022/09/10 02:34:07;;;;;;;;;;;;;;;13.29;89.43;96733.75;30001;982;1881;-64
2022/09/10 02:34:39;;;;;;;;;;;;;;;13.28;89.38;96734.88;30001;982;1877;-66
2022/09/10 02:35:10;;;;;;;;;;;;;;;13.34;89.70;96728.16;30001;982;1881;-69
2022/09/10 02:35:41;;;;;;;;;;;;;;;13.33;89.34;96725.75;30001;982;1877;-68
2022/09/10 02:36:13;;;;;;;;;;;;;;;13.31;89.43;96730.72;30001;982;1798;-68
2022/09/10 02:36:46;;;;;;;;;;;;;;;13.30;89.39;96727.19;30001;982;1864;-68
2022/09/10 02:37:18;;;;;;;;;;;;;;;13.28;89.96;96729.41;30001;983;1872;-71
2022/09/10 02:37:49;;;;;;;;;;;;;;;13.26;90.11;96731.66;30001;970;1898;-69
2022/09/10 02:38:20;;;;;;;;;;;;;;;13.24;91.44;96728.44;30001;983;1881;-70
2022/09/10 02:38:52;;;;;;;;;;;;;;;13.22;91.16;96727.94;30001;983;1877;-64
2022/09/10 02:39:23;;;;;;;;;;;;;;;13.20;90.58;96730.16;30001;983;1881;-69
2022/09/10 02:39:54;;;;;;;;;;;;;;;13.19;90.74;96723.13;30001;983;1877;-70
2022/09/10 02:40:26;;;;;;;;;;;;;;;13.18;90.90;96723.44;30001;983;1881;-69
2022/09/10 02:40:58;;;;;;;;;;;;;;;13.19;90.70;96725.84;30001;983;1877;-69
2022/09/10 02:41:33;;;;;;;;;;;;;;;13.20;90.64;96722.00;30001;982;1868;-69
2022/09/10 02:42:04;;;;;;;;;;;;;;;13.20;90.95;96727.44;30001;982;1868;-71
2022/09/10 02:42:37;;;;;;;;;;;;;;;13.18;91.03;96724.22;30001;982;1882;-71
2022/09/10 02:43:08;;;;;;;;;;;;;;;13.18;91.34;96728.88;30001;982;1877;-71
2022/09/10 02:43:39;;;;;;;;;;;;;;;13.16;91.67;96721.03;30001;982;1882;-69
2022/09/10 02:44:10;;;;;;;;;;;;;;;13.14;92.06;96717.78;30001;983;1876;-70
2022/09/10 02:44:40;;;;;;;;;;;;;;;13.12;92.25;96722.75;30001;983;1881;-71
2022/09/10 02:45:13;;;;;;;;;;;;;;;13.10;92.71;96727.72;30001;983;1877;-69
2022/09/10 02:45:44;;;;;;;;;;;;;;;13.10;92.42;96722.25;30001;983;1881;-70
2022/09/10 02:46:14;;;;;;;;;;;;;;;13.11;91.93;96717.63;30001;983;1877;-70
2022/09/10 02:46:45;;;;;;;;;;;;;;;13.11;91.93;96723.87;30001;983;1868;-72
2022/09/10 02:47:17;;;;;;;;;;;;;;;13.10;92.34;96722.25;30001;983;1868;-70
2022/09/10 02:47:48;;;;;;;;;;;;;;;13.11;92.08;96720.34;30001;983;1881;-70
2022/09/10 02:48:20;;;;;;;;;;;;;;;13.09;91.81;96721.44;30001;983;1779;-63
2022/09/10 02:48:54;;;;;;;;;;;;;;;13.10;91.88;96722.25;30001;982;1881;-70
2022/09/10 02:49:27;;;;;;;;;;;;;;;13.14;90.96;96723.25;30001;982;1877;-72
2022/09/10 02:50:00;;;;;;;;;;;;;;;13.18;90.54;96718.78;30001;982;1882;-71
2022/09/10 02:50:35;;;;;;;;;;;;;;;13.31;89.58;96727.97;30001;982;1877;-70
2022/09/10 02:51:09;;;;;;;;;;;;;;;13.31;89.20;96726.06;30001;986;1869;-71
2022/09/10 02:51:43;;;;;;;;;;;;;;;13.30;89.27;96727.19;30001;983;1868;-66
2022/09/10 02:52:16;;;;;;;;;;;;;;;13.29;89.43;96731.03;30001;983;1868;-71
2022/09/10 02:52:47;;;;;;;;;;;;;;;13.27;89.79;96722.34;30001;983;1868;-70
2022/09/10 02:53:19;;;;;;;;;;;;;;;13.25;89.58;96724.59;30001;983;1881;-70
2022/09/10 02:53:50;;;;;;;;;;;;;;;13.24;89.83;96722.97;30001;983;1877;-70
2022/09/10 02:54:22;;;;;;;;;;;;;;;13.23;89.81;96721.38;30001;983;1881;-71
2022/09/10 02:54:52;;;;;;;;;;;;;;;13.21;90.11;96720.88;30001;983;1877;-73
2022/09/10 02:55:26;;;;;;;;;;;;;;;13.22;90.53;96724.41;30001;983;1881;-72
2022/09/10 02:55:57;;;;;;;;;;;;;;;13.22;90.21;96721.69;30001;983;1877;-72
2022/09/10 02:56:28;;;;;;;;;;;;;;;13.21;90.24;96718.16;30001;982;1868;-72
2022/09/10 02:56:59;;;;;;;;;;;;;;;13.21;90.29;96718.16;30001;982;1868;-70
2022/09/10 02:57:30;;;;;;;;;;;;;;;13.23;89.96;96726.81;30001;982;1882;-72
2022/09/10 02:58:01;;;;;;;;;;;;;;;13.23;89.57;96721.38;30001;982;1877;-65
2022/09/10 02:58:32;;;;;;;;;;;;;;;13.22;89.77;96722.50;30001;982;1882;-71
2022/09/10 02:59:05;;;;;;;;;;;;;;;13.26;90.13;96718.03;30001;983;1863;-71
2022/09/10 02:59:36;;;;;;;;;;;;;;;13.29;90.65;96720.12;30001;983;1872;-70
2022/09/10 03:00:07;;;;;;;;;;;;;;;13.30;90.34;96720.94;30001;983;1876;-71
2022/09/10 03:00:39;;;;;;;;;;;;;;;13.31;89.75;96717.09;30001;983;1881;-71
2022/09/10 03:01:13;;;;;;;;;;;;;;;13.33;89.78;96721.09;30001;983;1863;-65
2022/09/10 03:01:44;;;;;;;;;;;;;;;13.34;89.82;96714.53;30001;983;1872;-70
2022/09/10 03:02:18;;;;;;;;;;;;;;;13.33;89.86;96718.38;30001;983;1877;-72
2022/09/10 03:02:49;;;;;;;;;;;;;;;13.38;89.77;96712.78;30001;983;1881;-72
2022/09/10 03:03:20;;;;;;;;;;;;;;;13.41;89.02;96723.06;30001;964;1825;-71
2022/09/10 03:03:55;;;;;;;;;;;;;;;13.40;88.90;96715.19;30001;982;1881;-70
2022/09/10 03:04:26;;;;;;;;;;;;;;;13.37;89.12;96713.91;30001;982;1877;-72
2022/09/10 03:04:58;;;;;;;;;;;;;;;13.36;89.30;96719.69;30001;982;1882;-64
2022/09/10 03:05:29;;;;;;;;;;;;;;;13.31;90.07;96717.88;30001;982;1799;-71
2022/09/10 03:06:02;;;;;;;;;;;;;;;13.29;90.52;96722.84;30001;982;1869;-71
2022/09/10 03:06:33;;;;;;;;;;;;;;;13.26;90.26;96720.75;30001;985;1868;-74
2022/09/10 03:07:05;;;;;;;;;;;;;;;13.25;90.64;96713.69;30001;983;1881;-71
2022/09/10 03:07:35;;;;;;;;;;;;;;;13.25;90.36;96719.12;30001;983;1877;-66
2022/09/10 03:08:08;;;;;;;;;;;;;;;13.22;90.54;96719.75;30001;983;1881;-71
2022/09/10 03:08:39;;;;;;;;;;;;;;;13.22;90.87;96718.97;30001;983;1877;-72